sensor_id;sensor_type;location;lat;lon;timestamp;pressure;altitude;pressure_sealevel;temperature;humidity
81125;BME280;70613;52.114;5.424;2023-06-10T00:00:52;101529.38;;;26.51;43.51
81125;BME280;70613;52.114;5.424;2023-06-10T00:03:25;101528.53;;;26.51;43.62
81125;BME280;70613;52.114;5.424;2023-06-10T00:05:55;101528.78;;;26.49;43.50
81125;BME280;70613;52.114;5.424;2023-06-10T00:08:25;101528.19;;;26.47;43.51
81125;BME280;70613;52.114;5.424;2023-06-10T00:11:02;101532.91;;;26.47;43.61
81125;BME280;70613;52.114;5.424;2023-06-10T00:13:32;101531.22;;;26.46;43.53
81125;BME280;70613;52.114;5.424;2023-06-10T00:16:03;101526.75;;;26.45;43.53
81125;BME280;70613;52.114;5.424;2023-06-10T00:18:36;101535.31;;;26.43;43.37
81125;BME280;70613;52.114;5.424;2023-06-10T00:21:06;101536.41;;;26.42;43.70
81125;BME280;70613;52.114;5.424;2023-06-10T00:23:36;101532.81;;;26.42;43.39
81125;BME280;70613;52.114;5.424;2023-06-10T00:26:06;101529.47;;;26.40;43.74
81125;BME280;70613;52.114;5.424;2023-06-10T00:28:36;101536.94;;;26.39;43.45
81125;BME280;70613;52.114;5.424;2023-06-10T00:31:06;101539.97;;;26.38;44.02
81125;BME280;70613;52.114;5.424;2023-06-10T00:33:39;101531.03;;;26.36;43.63
81125;BME280;70613;52.114;5.424;2023-06-10T00:36:09;101539.34;;;26.36;43.52
81125;BME280;70613;52.114;5.424;2023-06-10T00:38:39;101538.72;;;26.34;43.86
81125;BME280;70613;52.114;5.424;2023-06-10T01:40:42;101549.88;;;26.05;43.97
81125;BME280;70613;52.114;5.424;2023-06-10T01:43:31;101558.44;;;26.03;43.99
81125;BME280;70613;52.114;5.424;2023-06-10T01:46:15;101553.16;;;26.02;43.82
81125;BME280;70613;52.114;5.424;2023-06-10T02:18:10;101552.88;;;25.87;43.80
81125;BME280;70613;52.114;5.424;2023-06-10T02:20:49;101561.41;;;25.85;43.84
81125;BME280;70613;52.114;5.424;2023-06-10T02:23:20;101555.03;;;25.85;43.85
81125;BME280;70613;52.114;5.424;2023-06-10T02:26:27;101563.59;;;25.83;43.90
81125;BME280;70613;52.114;5.424;2023-06-10T02:29:32;101564.69;;;25.82;43.98
81125;BME280;70613;52.114;5.424;2023-06-10T02:58:07;101570.28;;;25.70;43.91
81125;BME280;70613;52.114;5.424;2023-06-10T03:01:47;101576.03;;;25.69;43.78
81125;BME280;70613;52.114;5.424;2023-06-10T03:04:38;101568.19;;;25.66;44.09
81125;BME280;70613;52.114;5.424;2023-06-10T03:30:51;101579.91;;;25.56;43.87
81125;BME280;70613;52.114;5.424;2023-06-10T03:33:28;101578.47;;;25.54;43.79
81125;BME280;70613;52.114;5.424;2023-06-10T03:36:12;101584.00;;;25.54;43.58
81125;BME280;70613;52.114;5.424;2023-06-10T03:38:59;101576.19;;;25.51;43.95
81125;BME280;70613;52.114;5.424;2023-06-10T03:42:01;101589.19;;;25.50;43.97
81125;BME280;70613;52.114;5.424;2023-06-10T03:44:37;101583.06;;;25.48;43.69
81125;BME280;70613;52.114;5.424;2023-06-10T03:47:39;101583.06;;;25.48;44.23
81125;BME280;70613;52.114;5.424;2023-06-10T04:04:42;101588.72;;;25.41;43.85
81125;BME280;70613;52.114;5.424;2023-06-10T04:52:07;101616.16;;;25.31;42.96
81125;BME280;70613;52.114;5.424;2023-06-10T04:54:43;101619.78;;;25.32;43.35
81125;BME280;70613;52.114;5.424;2023-06-10T04:57:16;101619.78;;;25.32;43.35
81125;BME280;70613;52.114;5.424;2023-06-10T05:11:30;101621.69;;;25.31;43.41
81125;BME280;70613;52.114;5.424;2023-06-10T08:31:23;101644.16;;;26.55;44.27
81125;BME280;70613;52.114;5.424;2023-06-10T08:33:53;101642.06;;;26.63;45.61
81125;BME280;70613;52.114;5.424;2023-06-10T08:36:23;101644.25;;;26.61;45.22
81125;BME280;70613;52.114;5.424;2023-06-10T08:38:53;101642.91;;;26.63;44.54
81125;BME280;70613;52.114;5.424;2023-06-10T08:41:25;101654.81;;;26.64;44.53
81125;BME280;70613;52.114;5.424;2023-06-10T08:44:06;101646.88;;;26.67;44.20
81125;BME280;70613;52.114;5.424;2023-06-10T08:46:47;101645.78;;;26.68;43.68
81125;BME280;70613;52.114;5.424;2023-06-10T08:49:18;101643.59;;;26.70;43.63
81125;BME280;70613;52.114;5.424;2023-06-10T08:54:58;101649.81;;;26.77;43.86
81125;BME280;70613;52.114;5.424;2023-06-10T08:57:30;101648.72;;;26.78;43.80
81125;BME280;70613;52.114;5.424;2023-06-10T09:00:16;101644.59;;;26.81;43.36
81125;BME280;70613;52.114;5.424;2023-06-10T09:02:50;101649.38;;;26.85;43.35
81125;BME280;70613;52.114;5.424;2023-06-10T09:05:21;101641.66;;;26.87;43.16
81125;BME280;70613;52.114;5.424;2023-06-10T09:07:51;101652.22;;;26.91;43.12
81125;BME280;70613;52.114;5.424;2023-06-10T09:10:22;101644.00;;;26.96;43.34
81125;BME280;70613;52.114;5.424;2023-06-10T09:12:52;101640.28;;;26.90;43.31
81125;BME280;70613;52.114;5.424;2023-06-10T09:15:22;101635.94;;;26.94;43.60
81125;BME280;70613;52.114;5.424;2023-06-10T09:17:55;101638.78;;;26.99;43.33
81125;BME280;70613;52.114;5.424;2023-06-10T09:20:25;101645.53;;;27.03;43.05
81125;BME280;70613;52.114;5.424;2023-06-10T09:22:55;101643.34;;;27.05;42.89
81125;BME280;70613;52.114;5.424;2023-06-10T09:25:35;101642.25;;;27.06;43.16
81125;BME280;70613;52.114;5.424;2023-06-10T09:28:13;101639.81;;;27.10;43.17
81125;BME280;70613;52.114;5.424;2023-06-10T09:30:46;101642.91;;;27.13;43.16
81125;BME280;70613;52.114;5.424;2023-06-10T09:33:19;101634.56;;;27.13;42.66
81125;BME280;70613;52.114;5.424;2023-06-10T09:35:54;101636.88;;;27.17;42.65
81125;BME280;70613;52.114;5.424;2023-06-10T09:38:30;101639.69;;;27.22;42.78
81125;BME280;70613;52.114;5.424;2023-06-10T09:41:09;101643.66;;;27.26;42.79
81125;BME280;70613;52.114;5.424;2023-06-10T09:43:42;101635.81;;;27.23;42.90
81125;BME280;70613;52.114;5.424;2023-06-10T09:46:15;101638.09;;;27.26;42.63
81125;BME280;70613;52.114;5.424;2023-06-10T09:48:48;101635.38;;;27.31;42.51
81125;BME280;70613;52.114;5.424;2023-06-10T09:51:19;101643.22;;;27.34;42.81
81125;BME280;70613;52.114;5.424;2023-06-10T09:53:51;101634.38;;;27.37;42.49
81125;BME280;70613;52.114;5.424;2023-06-10T09:56:21;101637.47;;;27.40;42.78
81125;BME280;70613;52.114;5.424;2023-06-10T09:59:03;101634.19;;;27.43;42.55
81125;BME280;70613;52.114;5.424;2023-06-10T10:01:35;101630.31;;;27.44;42.28
81125;BME280;70613;52.114;5.424;2023-06-10T10:04:08;101624.25;;;27.48;42.39
81125;BME280;70613;52.114;5.424;2023-06-10T10:06:38;101633.16;;;27.50;42.34
81125;BME280;70613;52.114;5.424;2023-06-10T10:09:09;101623.41;;;27.47;42.18
81125;BME280;70613;52.114;5.424;2023-06-10T10:11:47;101629.63;;;27.54;42.69
81125;BME280;70613;52.114;5.424;2023-06-10T10:14:18;101625.75;;;27.55;42.14
81125;BME280;70613;52.114;5.424;2023-06-10T10:16:52;101626.59;;;27.56;42.14
81125;BME280;70613;52.114;5.424;2023-06-10T10:19:29;101617.47;;;27.60;42.33
81125;BME280;70613;52.114;5.424;2023-06-10T10:22:08;101626.38;;;27.62;42.23
81125;BME280;70613;52.114;5.424;2023-06-10T10:24:44;101619.75;;;27.63;41.74
81125;BME280;70613;52.114;5.424;2023-06-10T10:27:24;101622.03;;;27.66;42.28
81125;BME280;70613;52.114;5.424;2023-06-10T10:29:58;101627.59;;;27.66;42.15
81125;BME280;70613;52.114;5.424;2023-06-10T10:32:40;101609.03;;;27.72;42.12
81125;BME280;70613;52.114;5.424;2023-06-10T10:35:20;101616.34;;;27.78;41.76
81125;BME280;70613;52.114;5.424;2023-06-10T10:37:52;101616.59;;;27.77;41.96
81125;BME280;70613;52.114;5.424;2023-06-10T10:40:24;101615.81;;;27.81;41.44
81125;BME280;70613;52.114;5.424;2023-06-10T10:42:58;101613.88;;;27.82;41.62
81125;BME280;70613;52.114;5.424;2023-06-10T10:45:30;101607.56;;;27.86;41.80
81125;BME280;70613;52.114;5.424;2023-06-10T10:48:06;101605.34;;;27.88;41.69
81125;BME280;70613;52.114;5.424;2023-06-10T10:50:56;101610.72;;;27.95;41.20
81125;BME280;70613;52.114;5.424;2023-06-10T10:53:26;101615.44;;;27.94;41.52
81125;BME280;70613;52.114;5.424;2023-06-10T10:56:00;101610.44;;;27.96;41.36
81125;BME280;70613;52.114;5.424;2023-06-10T10:58:35;101611.31;;;28.02;41.08
81125;BME280;70613;52.114;5.424;2023-06-10T11:01:14;101600.53;;;28.06;41.00
81125;BME280;70613;52.114;5.424;2023-06-10T11:03:45;101605.81;;;28.07;41.31
81125;BME280;70613;52.114;5.424;2023-06-10T11:06:18;101606.09;;;28.06;41.63
81125;BME280;70613;52.114;5.424;2023-06-10T11:08:49;101609.13;;;28.04;41.45
81125;BME280;70613;52.114;5.424;2023-06-10T11:11:24;101600.84;;;28.09;41.17
81125;BME280;70613;52.114;5.424;2023-06-10T11:14:06;101599.81;;;28.15;41.34
81125;BME280;70613;52.114;5.424;2023-06-10T11:16:41;101595.38;;;28.19;41.15
81125;BME280;70613;52.114;5.424;2023-06-10T11:19:33;101600.44;;;28.22;40.55
81125;BME280;70613;52.114;5.424;2023-06-10T11:22:16;101587.06;;;28.19;41.23
81125;BME280;70613;52.114;5.424;2023-06-10T11:24:50;101591.00;;;28.23;41.01
81125;BME280;70613;52.114;5.424;2023-06-10T11:27:21;101588.22;;;28.23;40.66
81125;BME280;70613;52.114;5.424;2023-06-10T11:29:58;101586.34;;;28.29;40.86
81125;BME280;70613;52.114;5.424;2023-06-10T11:32:50;101593.91;;;28.34;40.69
81125;BME280;70613;52.114;5.424;2023-06-10T11:35:23;101590.84;;;28.35;40.66
81125;BME280;70613;52.114;5.424;2023-06-10T11:37:57;101583.91;;;28.38;40.51
81125;BME280;70613;52.114;5.424;2023-06-10T11:40:29;101580.88;;;28.39;40.81
81125;BME280;70613;52.114;5.424;2023-06-10T11:43:00;101580.31;;;28.37;40.65
81125;BME280;70613;52.114;5.424;2023-06-10T11:45:31;101577.25;;;28.39;40.37
81125;BME280;70613;52.114;5.424;2023-06-10T11:48:01;101575.31;;;28.39;40.60
81125;BME280;70613;52.114;5.424;2023-06-10T11:50:34;101574.25;;;28.45;40.13
81125;BME280;70613;52.114;5.424;2023-06-10T11:53:08;101564.00;;;28.51;40.11
81125;BME280;70613;52.114;5.424;2023-06-10T11:55:45;101578.44;;;28.48;40.26
81125;BME280;70613;52.114;5.424;2023-06-10T11:58:17;101575.13;;;28.51;40.42
81125;BME280;70613;52.114;5.424;2023-06-10T12:00:48;101571.28;;;28.57;40.21
81125;BME280;70613;52.114;5.424;2023-06-10T12:03:20;101572.44;;;28.61;39.79
81125;BME280;70613;52.114;5.424;2023-06-10T12:05:57;101562.75;;;28.64;39.70
81125;BME280;70613;52.114;5.424;2023-06-10T12:08:31;101569.69;;;28.66;40.08
81125;BME280;70613;52.114;5.424;2023-06-10T12:11:11;101573.81;;;28.58;40.54
81125;BME280;70613;52.114;5.424;2023-06-10T12:13:46;101566.88;;;28.61;40.43
81125;BME280;70613;52.114;5.424;2023-06-10T12:16:17;101555.44;;;28.57;40.28
81125;BME280;70613;52.114;5.424;2023-06-10T12:18:47;101549.41;;;28.66;40.17
81125;BME280;70613;52.114;5.424;2023-06-10T12:21:18;101551.63;;;28.69;40.14
81125;BME280;70613;52.114;5.424;2023-06-10T12:24:06;101549.19;;;28.72;39.98
81125;BME280;70613;52.114;5.424;2023-06-10T12:26:40;101548.34;;;28.77;39.59
81125;BME280;70613;52.114;5.424;2023-06-10T12:29:21;101543.09;;;28.80;39.95
81125;BME280;70613;52.114;5.424;2023-06-10T12:32:04;101543.41;;;28.84;39.48
81125;BME280;70613;52.114;5.424;2023-06-10T12:34:37;101544.53;;;28.88;39.44
81125;BME280;70613;52.114;5.424;2023-06-10T12:37:12;101544.25;;;28.84;39.77
81125;BME280;70613;52.114;5.424;2023-06-10T12:39:51;101548.13;;;28.83;39.94
81125;BME280;70613;52.114;5.424;2023-06-10T12:42:22;101535.09;;;28.89;39.98
81125;BME280;70613;52.114;5.424;2023-06-10T12:44:53;101543.78;;;28.93;40.04
81125;BME280;70613;52.114;5.424;2023-06-10T12:47:30;101538.22;;;28.93;39.64
81125;BME280;70613;52.114;5.424;2023-06-10T12:50:00;101538.72;;;28.90;39.54
81125;BME280;70613;52.114;5.424;2023-06-10T12:52:31;101531.50;;;28.89;39.93
81125;BME280;70613;52.114;5.424;2023-06-10T12:55:05;101536.78;;;28.90;40.18
81125;BME280;70613;52.114;5.424;2023-06-10T12:57:35;101537.09;;;28.94;39.87
81125;BME280;70613;52.114;5.424;2023-06-10T13:00:07;101535.16;;;28.99;39.53
81125;BME280;70613;52.114;5.424;2023-06-10T13:02:39;101539.38;;;29.02;39.47
81125;BME280;70613;52.114;5.424;2023-06-10T13:05:09;101538.78;;;29.00;39.31
81125;BME280;70613;52.114;5.424;2023-06-10T13:07:39;101531.31;;;29.05;39.27
81125;BME280;70613;52.114;5.424;2023-06-10T13:10:17;101533.53;;;29.08;39.66
81125;BME280;70613;52.114;5.424;2023-06-10T13:12:47;101530.22;;;29.06;38.87
81125;BME280;70613;52.114;5.424;2023-06-10T13:15:17;101535.22;;;29.09;38.92
81125;BME280;70613;52.114;5.424;2023-06-10T13:17:47;101532.75;;;29.13;39.13
81125;BME280;70613;52.114;5.424;2023-06-10T13:20:21;101528.03;;;29.19;39.03
81125;BME280;70613;52.114;5.424;2023-06-10T13:22:51;101534.97;;;29.16;39.42
81125;BME280;70613;52.114;5.424;2023-06-10T13:25:24;101528.31;;;29.17;39.20
81125;BME280;70613;52.114;5.424;2023-06-10T13:27:54;101526.63;;;29.16;39.23
81125;BME280;70613;52.114;5.424;2023-06-10T13:30:23;101519.69;;;29.19;38.99
81125;BME280;70613;52.114;5.424;2023-06-10T13:32:54;101505.81;;;29.24;38.69
81125;BME280;70613;52.114;5.424;2023-06-10T13:35:24;101518.31;;;29.26;39.17
81125;BME280;70613;52.114;5.424;2023-06-10T13:37:53;101515.00;;;29.24;38.87
81125;BME280;70613;52.114;5.424;2023-06-10T13:40:32;101508.59;;;29.24;38.79
81125;BME280;70613;52.114;5.424;2023-06-10T13:43:02;101491.59;;;29.25;39.02
81125;BME280;70613;52.114;5.424;2023-06-10T13:45:32;101503.84;;;29.29;38.98
81125;BME280;70613;52.114;5.424;2023-06-10T13:48:02;101499.72;;;29.32;38.81
81125;BME280;70613;52.114;5.424;2023-06-10T13:50:33;101499.13;;;29.30;39.07
81125;BME280;70613;52.114;5.424;2023-06-10T13:53:03;101495.53;;;29.34;38.77
81125;BME280;70613;52.114;5.424;2023-06-10T13:57:03;101503.78;;;29.04;41.28
81125;BME280;70613;52.114;5.424;2023-06-10T13:59:36;101505.72;;;29.03;41.02
81125;BME280;70613;52.114;5.424;2023-06-10T14:02:06;101496.56;;;29.13;40.85
81125;BME280;70613;52.114;5.424;2023-06-10T14:04:36;101493.00;;;29.23;40.79
81125;BME280;70613;52.114;5.424;2023-06-10T14:07:06;101491.63;;;29.30;42.12
81125;BME280;70613;52.114;5.424;2023-06-10T14:09:36;101494.97;;;29.37;42.24
81125;BME280;70613;52.114;5.424;2023-06-10T14:12:09;101491.13;;;29.43;42.44
81125;BME280;70613;52.114;5.424;2023-06-10T14:14:39;101495.88;;;29.48;42.77
81125;BME280;70613;52.114;5.424;2023-06-10T14:17:09;101495.06;;;29.53;42.60
81125;BME280;70613;52.114;5.424;2023-06-10T14:19:39;101488.09;;;29.55;42.61
81125;BME280;70613;52.114;5.424;2023-06-10T14:22:10;101489.22;;;29.59;42.86
81125;BME280;70613;52.114;5.424;2023-06-10T14:24:40;101492.31;;;29.63;42.61
81125;BME280;70613;52.114;5.424;2023-06-10T14:27:13;101488.41;;;29.64;42.28
81125;BME280;70613;52.114;5.424;2023-06-10T14:29:42;101489.78;;;29.66;41.92
81125;BME280;70613;52.114;5.424;2023-06-10T14:32:12;101490.34;;;29.68;41.38
81125;BME280;70613;52.114;5.424;2023-06-10T14:34:44;101488.41;;;29.69;41.00
81125;BME280;70613;52.114;5.424;2023-06-10T14:37:14;101487.03;;;29.72;40.98
81125;BME280;70613;52.114;5.424;2023-06-10T14:39:44;101484.81;;;29.74;40.54
81125;BME280;70613;52.114;5.424;2023-06-10T14:42:19;101486.19;;;29.76;40.52
81125;BME280;70613;52.114;5.424;2023-06-10T14:44:49;101486.75;;;29.78;40.41
81125;BME280;70613;52.114;5.424;2023-06-10T14:47:19;101485.91;;;29.78;39.81
81125;BME280;70613;52.114;5.424;2023-06-10T14:49:49;101487.59;;;29.79;40.02
81125;BME280;70613;52.114;5.424;2023-06-10T14:52:19;101478.16;;;29.80;39.71
81125;BME280;70613;52.114;5.424;2023-06-10T14:54:48;101480.38;;;29.83;39.97
81125;BME280;70613;52.114;5.424;2023-06-10T14:57:21;101475.63;;;29.83;39.65
81125;BME280;70613;52.114;5.424;2023-06-10T14:59:51;101480.91;;;29.85;39.60
81125;BME280;70613;52.114;5.424;2023-06-10T15:02:21;101480.63;;;29.86;39.91
81125;BME280;70613;52.114;5.424;2023-06-10T15:04:52;101485.94;;;29.88;39.79
81125;BME280;70613;52.114;5.424;2023-06-10T15:07:22;101481.19;;;29.88;39.01
81125;BME280;70613;52.114;5.424;2023-06-10T15:09:52;101486.22;;;29.91;39.37
81125;BME280;70613;52.114;5.424;2023-06-10T15:12:24;101481.78;;;29.90;39.26
81125;BME280;70613;52.114;5.424;2023-06-10T15:14:54;101477.59;;;29.93;38.92
81125;BME280;70613;52.114;5.424;2023-06-10T15:17:24;101471.72;;;29.94;39.12
81125;BME280;70613;52.114;5.424;2023-06-10T15:19:54;101465.03;;;29.95;38.88
81125;BME280;70613;52.114;5.424;2023-06-10T15:22:24;101471.44;;;29.96;39.24
81125;BME280;70613;52.114;5.424;2023-06-10T15:24:54;101469.50;;;29.96;39.01
81125;BME280;70613;52.114;5.424;2023-06-10T15:27:26;101466.72;;;29.96;38.71
81125;BME280;70613;52.114;5.424;2023-06-10T15:29:56;101470.03;;;29.98;39.28
81125;BME280;70613;52.114;5.424;2023-06-10T15:32:26;101465.34;;;29.99;38.93
81125;BME280;70613;52.114;5.424;2023-06-10T15:34:56;101470.63;;;30.01;38.59
81125;BME280;70613;52.114;5.424;2023-06-10T15:37:26;101456.69;;;30.01;38.93
81125;BME280;70613;52.114;5.424;2023-06-10T15:39:56;101455.56;;;30.02;38.53
81125;BME280;70613;52.114;5.424;2023-06-10T15:42:28;101460.03;;;30.03;38.85
81125;BME280;70613;52.114;5.424;2023-06-10T15:44:58;101455.00;;;30.05;38.62
81125;BME280;70613;52.114;5.424;2023-06-10T15:47:28;101451.66;;;30.03;38.79
81125;BME280;70613;52.114;5.424;2023-06-10T15:49:57;101450.56;;;30.04;38.86
81125;BME280;70613;52.114;5.424;2023-06-10T15:52:27;101448.31;;;30.06;38.34
81125;BME280;70613;52.114;5.424;2023-06-10T15:54:57;101455.84;;;30.05;38.40
81125;BME280;70613;52.114;5.424;2023-06-10T15:57:30;101458.38;;;30.07;38.38
81125;BME280;70613;52.114;5.424;2023-06-10T16:00:00;101453.63;;;30.07;38.79
81125;BME280;70613;52.114;5.424;2023-06-10T16:02:32;101451.69;;;30.08;38.59
81125;BME280;70613;52.114;5.424;2023-06-10T16:05:01;101452.53;;;30.08;38.22
81125;BME280;70613;52.114;5.424;2023-06-10T16:07:31;101454.22;;;30.09;38.59
81125;BME280;70613;52.114;5.424;2023-06-10T16:10:01;101449.47;;;30.10;38.58
81125;BME280;70613;52.114;5.424;2023-06-10T16:12:34;101444.75;;;30.10;38.69
81125;BME280;70613;52.114;5.424;2023-06-10T16:15:05;101442.78;;;30.11;38.75
81125;BME280;70613;52.114;5.424;2023-06-10T16:17:37;101438.34;;;30.10;38.22
81125;BME280;70613;52.114;5.424;2023-06-10T16:20:14;101437.22;;;30.11;38.20
81125;BME280;70613;52.114;5.424;2023-06-10T16:22:43;101433.31;;;30.12;38.19
81125;BME280;70613;52.114;5.424;2023-06-10T16:25:13;101437.75;;;30.13;38.75
81125;BME280;70613;52.114;5.424;2023-06-10T16:27:46;101432.19;;;30.13;38.47
81125;BME280;70613;52.114;5.424;2023-06-10T16:30:16;101431.34;;;30.12;38.14
81125;BME280;70613;52.114;5.424;2023-06-10T16:32:46;101430.53;;;30.12;38.71
81125;BME280;70613;52.114;5.424;2023-06-10T16:35:16;101436.94;;;30.12;38.12
81125;BME280;70613;52.114;5.424;2023-06-10T16:37:46;101438.59;;;30.13;38.16
81125;BME280;70613;52.114;5.424;2023-06-10T16:40:19;101433.84;;;30.14;38.62
81125;BME280;70613;52.114;5.424;2023-06-10T16:42:51;101437.47;;;30.14;38.47
81125;BME280;70613;52.114;5.424;2023-06-10T16:45:21;101439.44;;;30.14;38.49
81125;BME280;70613;52.114;5.424;2023-06-10T16:47:51;101433.84;;;30.14;38.06
81125;BME280;70613;52.114;5.424;2023-06-10T16:50:22;101431.91;;;30.14;38.03
81125;BME280;70613;52.114;5.424;2023-06-10T16:52:52;101429.13;;;30.14;38.58
81125;BME280;70613;52.114;5.424;2023-06-10T16:55:22;101428.84;;;30.16;38.48
81125;BME280;70613;52.114;5.424;2023-06-10T16:57:54;101428.00;;;30.15;38.23
81125;BME280;70613;52.114;5.424;2023-06-10T17:00:26;101433.03;;;30.13;38.36
81125;BME280;70613;52.114;5.424;2023-06-10T17:02:56;101428.28;;;30.14;38.17
81125;BME280;70613;52.114;5.424;2023-06-10T17:05:26;101424.66;;;30.13;38.60
81125;BME280;70613;52.114;5.424;2023-06-10T17:07:56;101429.94;;;30.15;38.20
81125;BME280;70613;52.114;5.424;2023-06-10T17:10:28;101424.38;;;30.15;38.62
81125;BME280;70613;52.114;5.424;2023-06-10T17:13:00;101431.06;;;30.14;38.03
81125;BME280;70613;52.114;5.424;2023-06-10T17:15:30;101439.44;;;30.14;38.54
81125;BME280;70613;52.114;5.424;2023-06-10T17:18:00;101443.34;;;30.13;38.19
81125;BME280;70613;52.114;5.424;2023-06-10T17:20:31;101441.66;;;30.12;38.27
81125;BME280;70613;52.114;5.424;2023-06-10T17:23:01;101440.28;;;30.09;36.37
81125;BME280;70613;52.114;5.424;2023-06-10T17:25:32;101446.38;;;30.06;34.99
81125;BME280;70613;52.114;5.424;2023-06-10T17:28:05;101439.72;;;30.07;32.52
81125;BME280;70613;52.114;5.424;2023-06-10T17:30:39;101438.06;;;30.11;30.87
81125;BME280;70613;52.114;5.424;2023-06-10T17:33:11;101444.44;;;30.07;29.95
81125;BME280;70613;52.114;5.424;2023-06-10T17:35:40;101440.53;;;30.03;29.67
81125;BME280;70613;52.114;5.424;2023-06-10T17:38:10;101447.50;;;29.95;29.10
81125;BME280;70613;52.114;5.424;2023-06-10T17:40:48;101440.78;;;29.96;29.33
81125;BME280;70613;52.114;5.424;2023-06-10T17:43:21;101446.91;;;29.98;28.10
81125;BME280;70613;52.114;5.424;2023-06-10T17:45:51;101441.09;;;29.94;28.71
81125;BME280;70613;52.114;5.424;2023-06-10T17:48:22;101444.69;;;29.95;28.28
81125;BME280;70613;52.114;5.424;2023-06-10T17:50:53;101450.56;;;29.93;27.96
81125;BME280;70613;52.114;5.424;2023-06-10T17:53:23;101450.28;;;29.90;27.90
81125;BME280;70613;52.114;5.424;2023-06-10T17:55:52;101446.09;;;29.82;28.08
81125;BME280;70613;52.114;5.424;2023-06-10T17:58:25;101451.38;;;29.79;27.68
81125;BME280;70613;52.114;5.424;2023-06-10T18:00:56;101461.16;;;29.81;27.83
81125;BME280;70613;52.114;5.424;2023-06-10T18:03:26;101462.81;;;29.72;28.03
81125;BME280;70613;52.114;5.424;2023-06-10T18:05:55;101461.69;;;29.63;27.02
81125;BME280;70613;52.114;5.424;2023-06-10T18:08:25;101460.28;;;29.65;26.20
81125;BME280;70613;52.114;5.424;2023-06-10T18:11:18;101458.91;;;29.63;26.54
81125;BME280;70613;52.114;5.424;2023-06-10T18:13:51;101451.94;;;29.60;26.53
81125;BME280;70613;52.114;5.424;2023-06-10T18:16:21;101455.53;;;29.56;27.07
81125;BME280;70613;52.114;5.424;2023-06-10T18:18:52;101462.75;;;29.57;26.88
81125;BME280;70613;52.114;5.424;2023-06-10T18:21:22;101456.09;;;29.58;27.04
81125;BME280;70613;52.114;5.424;2023-06-10T18:23:52;101462.22;;;29.55;27.05
81125;BME280;70613;52.114;5.424;2023-06-10T18:26:22;101468.06;;;29.53;27.29
81125;BME280;70613;52.114;5.424;2023-06-10T18:28:56;101453.59;;;29.51;27.21
81125;BME280;70613;52.114;5.424;2023-06-10T18:31:27;101467.44;;;29.46;26.94
81125;BME280;70613;52.114;5.424;2023-06-10T18:33:57;101471.91;;;29.47;26.96
81125;BME280;70613;52.114;5.424;2023-06-10T18:36:29;101466.34;;;29.42;26.96
81125;BME280;70613;52.114;5.424;2023-06-10T18:38:59;101470.22;;;29.36;27.13
81125;BME280;70613;52.114;5.424;2023-06-10T18:41:35;101480.78;;;29.34;27.07
81125;BME280;70613;52.114;5.424;2023-06-10T18:44:08;101485.53;;;29.33;26.97
81125;BME280;70613;52.114;5.424;2023-06-10T18:46:39;101486.06;;;29.35;26.97
81125;BME280;70613;52.114;5.424;2023-06-10T18:49:09;101484.13;;;29.36;27.05
81125;BME280;70613;52.114;5.424;2023-06-10T18:51:40;101483.28;;;29.35;27.75
81125;BME280;70613;52.114;5.424;2023-06-10T18:54:10;101480.50;;;29.30;27.47
81125;BME280;70613;52.114;5.424;2023-06-10T18:56:40;101485.16;;;29.14;27.82
81125;BME280;70613;52.114;5.424;2023-06-10T18:59:12;101494.06;;;29.11;27.52
81125;BME280;70613;52.114;5.424;2023-06-10T19:01:44;101499.38;;;29.13;27.10
81125;BME280;70613;52.114;5.424;2023-06-10T19:04:14;101493.75;;;29.08;27.99
81125;BME280;70613;52.114;5.424;2023-06-10T19:06:44;101505.72;;;29.08;27.77
81125;BME280;70613;52.114;5.424;2023-06-10T19:09:14;101509.00;;;29.00;28.03
81125;BME280;70613;52.114;5.424;2023-06-10T19:11:45;101510.13;;;28.99;28.22
81125;BME280;70613;52.114;5.424;2023-06-10T19:14:18;101505.44;;;29.05;27.82
81125;BME280;70613;52.114;5.424;2023-06-10T19:16:50;101507.34;;;28.94;27.92
81125;BME280;70613;52.114;5.424;2023-06-10T19:19:20;101506.28;;;29.05;28.56
81125;BME280;70613;52.114;5.424;2023-06-10T19:21:51;101506.22;;;28.95;28.16
81125;BME280;70613;52.114;5.424;2023-06-10T19:24:21;101505.31;;;28.84;28.13
81125;BME280;70613;52.114;5.424;2023-06-10T19:26:51;101511.91;;;28.73;28.50
81125;BME280;70613;52.114;5.424;2023-06-10T19:29:27;101515.88;;;28.88;28.63
81125;BME280;70613;52.114;5.424;2023-06-10T19:31:57;101520.84;;;28.80;28.26
81125;BME280;70613;52.114;5.424;2023-06-10T19:34:27;101518.59;;;28.77;28.56
81125;BME280;70613;52.114;5.424;2023-06-10T19:36:59;101531.69;;;28.77;28.64
81125;BME280;70613;52.114;5.424;2023-06-10T19:39:30;101527.25;;;28.81;28.59
81125;BME280;70613;52.114;5.424;2023-06-10T19:42:00;101535.22;;;28.62;28.81
81125;BME280;70613;52.114;5.424;2023-06-10T19:44:35;101530.22;;;28.69;28.84
81125;BME280;70613;52.114;5.424;2023-06-10T19:47:06;101534.44;;;28.72;28.93
81125;BME280;70613;52.114;5.424;2023-06-10T19:49:36;101543.63;;;28.77;28.74
81125;BME280;70613;52.114;5.424;2023-06-10T19:52:07;101539.41;;;28.70;28.77
81125;BME280;70613;52.114;5.424;2023-06-10T19:54:37;101535.69;;;28.54;28.61
81125;BME280;70613;52.114;5.424;2023-06-10T19:57:09;101545.97;;;28.53;28.48
81125;BME280;70613;52.114;5.424;2023-06-10T19:59:42;101539.53;;;28.48;28.97
81125;BME280;70613;52.114;5.424;2023-06-10T20:02:13;101546.25;;;28.52;28.70
81125;BME280;70613;52.114;5.424;2023-06-10T20:04:43;101551.19;;;28.45;28.41
81125;BME280;70613;52.114;5.424;2023-06-10T20:07:13;101548.69;;;28.43;28.44
81125;BME280;70613;52.114;5.424;2023-06-10T20:09:43;101550.09;;;28.46;28.92
81125;BME280;70613;52.114;5.424;2023-06-10T20:12:13;101544.78;;;28.44;28.62